Time;durP1;ratioP1;P1;durP2;ratioP2;P2;SDS_P1;SDS_P2;PMS_P1;PMS_P2;Temp;Humidity;BMP_temperature;BMP_pressure;BME280_temperature;BME280_humidity;BME280_pressure;Samples;Min_cycle;Max_cycle;Signal;HPM_P1;HPM_P2
2023/02/19 00:00:36;;;;;;;26.00;23.30;;;11.90;99.90;;;;;;2082159;28;20025;-72
2023/02/19 00:01:40;;;;;;;24.70;22.30;;;11.90;99.90;;;;;;2075953;28;20080;-72
2023/02/19 00:02:41;;;;;;;24.10;21.88;;;11.90;99.90;;;;;;2074385;28;20026;-72
2023/02/19 00:03:48;;;;;;;23.30;21.10;;;11.90;99.90;;;;;;2076776;28;20573;-72
2023/02/19 00:04:49;;;;;;;24.77;22.27;;;11.90;99.90;;;;;;2074613;28;20030;-72
2023/02/19 00:05:49;;;;;;;23.35;21.05;;;11.90;99.90;;;;;;2075183;28;20084;-72
2023/02/19 00:06:50;;;;;;;23.38;21.10;;;11.90;99.90;;;;;;2075935;28;20038;-73
2023/02/19 00:07:50;;;;;;;24.42;22.23;;;11.90;99.90;;;;;;2075087;28;20116;-72
2023/02/19 00:08:51;;;;;;;24.77;22.05;;;11.90;99.90;;;;;;2075971;28;20029;-72
2023/02/19 00:09:52;;;;;;;24.05;21.83;;;11.90;99.90;;;;;;2074448;28;20048;-72
2023/02/19 00:10:52;;;;;;;24.73;22.33;;;11.90;99.90;;;;;;2074320;28;20041;-72
2023/02/19 00:11:53;;;;;;;24.02;21.52;;;11.90;99.90;;;;;;2075322;28;20032;-72
2023/02/19 00:12:54;;;;;;;23.65;21.33;;;11.90;99.90;;;;;;2077934;28;20056;-72
2023/02/19 00:13:56;;;;;;;24.05;21.30;;;11.90;99.90;;;;;;2082000;28;20029;-72
2023/02/19 00:14:57;;;;;;;22.88;20.77;;;11.90;99.90;;;;;;2075356;28;20100;-72
2023/02/19 00:16:03;;;;;;;22.90;20.80;;;11.90;99.90;;;;;;2075424;28;20448;-72
2023/02/19 00:17:04;;;;;;;23.27;20.85;;;11.90;99.90;;;;;;2075706;28;20037;-72
2023/02/19 00:18:04;;;;;;;23.15;20.95;;;11.90;99.90;;;;;;2075451;28;20060;-72
2023/02/19 00:19:10;;;;;;;23.50;21.23;;;12.00;99.90;;;;;;2076236;28;20018;-72
2023/02/19 00:20:11;;;;;;;22.13;20.02;;;12.00;99.90;;;;;;2074875;28;20025;-72
2023/02/19 00:21:12;;;;;;;22.55;20.40;;;11.90;99.90;;;;;;2074672;28;20939;-72
2023/02/19 00:22:16;;;;;;;22.42;20.35;;;12.00;99.90;;;;;;2074893;28;20041;-72
2023/02/19 00:23:16;;;;;;;22.15;20.10;;;11.90;99.90;;;;;;2075166;28;20041;-73
2023/02/19 00:24:17;;;;;;;22.45;20.35;;;12.00;99.90;;;;;;2073518;28;20025;-72
2023/02/19 00:25:18;;;;;;;22.17;20.08;;;12.00;99.90;;;;;;2075622;28;20030;-72
2023/02/19 00:26:19;;;;;;;22.08;19.95;;;11.90;99.90;;;;;;2074159;28;20025;-72
2023/02/19 00:27:19;;;;;;;21.75;19.65;;;12.00;99.90;;;;;;2075623;28;20068;-72
2023/02/19 00:28:20;;;;;;;22.30;20.20;;;12.00;99.90;;;;;;2076456;28;20022;-72
2023/02/19 00:29:21;;;;;;;22.95;20.60;;;12.00;99.90;;;;;;2074077;28;20469;-72
2023/02/19 00:30:22;;;;;;;22.85;20.70;;;12.00;99.90;;;;;;2074261;28;20116;-72
2023/02/19 00:31:25;;;;;;;22.73;20.63;;;12.00;99.90;;;;;;2074568;28;20480;-72
2023/02/19 00:32:25;;;;;;;22.92;20.42;;;12.00;99.90;;;;;;2075880;28;20024;-72
2023/02/19 00:33:28;;;;;;;24.83;22.27;;;12.00;99.90;;;;;;2074906;28;20064;-72
2023/02/19 00:34:29;;;;;;;23.45;21.08;;;12.00;99.90;;;;;;2073354;28;20014;-72
2023/02/19 00:35:32;;;;;;;24.05;21.63;;;12.00;99.90;;;;;;2076292;28;20104;-72
2023/02/19 00:36:36;;;;;;;22.52;20.35;;;12.00;99.90;;;;;;2075573;28;20101;-72
2023/02/19 00:37:36;;;;;;;22.40;20.20;;;12.00;99.90;;;;;;2076377;28;20112;-72
2023/02/19 00:38:38;;;;;;;24.35;21.33;;;12.00;99.90;;;;;;2076529;28;20084;-73
2023/02/19 00:39:39;;;;;;;22.80;20.63;;;12.00;99.90;;;;;;2074518;28;20067;-72
2023/02/19 00:40:39;;;;;;;23.42;21.23;;;12.00;99.90;;;;;;2074877;28;20025;-72
2023/02/19 00:41:40;;;;;;;22.83;20.42;;;12.00;99.90;;;;;;2076788;28;20116;-72
2023/02/19 00:42:40;;;;;;;22.70;20.40;;;12.00;99.90;;;;;;2074168;28;20033;-72
2023/02/19 00:43:41;;;;;;;22.52;20.27;;;12.00;99.90;;;;;;2075065;28;20024;-72
2023/02/19 00:44:41;;;;;;;22.92;20.67;;;12.00;99.90;;;;;;2073117;28;20028;-72
2023/02/19 00:45:42;;;;;;;24.77;22.35;;;12.00;99.90;;;;;;2073991;28;20030;-72
2023/02/19 00:46:46;;;;;;;22.98;20.50;;;12.00;99.90;;;;;;2074957;28;20029;-72
2023/02/19 00:47:46;;;;;;;23.27;20.92;;;12.00;99.90;;;;;;2075327;28;20052;-72
2023/02/19 00:48:48;;;;;;;23.77;21.38;;;12.00;99.90;;;;;;2073814;28;20031;-72
2023/02/19 00:49:48;;;;;;;22.23;19.92;;;12.00;99.90;;;;;;2073300;28;20091;-72
2023/02/19 00:50:49;;;;;;;22.85;20.55;;;12.00;99.90;;;;;;2074511;28;20034;-72
2023/02/19 00:51:51;;;;;;;22.02;19.90;;;12.00;99.90;;;;;;2081436;28;20119;-72
2023/02/19 00:52:51;;;;;;;23.98;21.58;;;12.00;99.90;;;;;;2081941;28;20041;-72
2023/02/19 00:53:52;;;;;;;21.83;19.73;;;12.00;99.90;;;;;;2077742;28;20022;-72
2023/02/19 00:54:53;;;;;;;23.13;20.00;;;12.00;99.90;;;;;;2080036;28;20750;-72
2023/02/19 00:55:53;;;;;;;21.95;19.85;;;12.00;99.90;;;;;;2072936;28;20414;-72
2023/02/19 00:56:54;;;;;;;22.02;19.88;;;12.00;99.90;;;;;;2076266;28;20033;-72
2023/02/19 00:57:54;;;;;;;19.67;17.80;;;12.00;99.90;;;;;;2075163;28;20453;-72
2023/02/19 00:58:55;;;;;;;20.60;18.67;;;12.00;99.90;;;;;;2075837;28;20052;-72
2023/02/19 00:59:55;;;;;;;19.83;17.92;;;12.00;99.90;;;;;;2074986;28;20030;-72
2023/02/19 01:00:56;;;;;;;21.10;19.15;;;12.00;99.90;;;;;;2074359;28;20041;-72
2023/02/19 01:01:56;;;;;;;20.67;18.50;;;12.00;99.90;;;;;;2073575;28;20030;-72
2023/02/19 01:02:57;;;;;;;20.58;18.48;;;12.00;99.90;;;;;;2072564;28;20030;-72
2023/02/19 01:03:57;;;;;;;18.88;17.10;;;12.00;99.90;;;;;;2076760;28;20038;-72
2023/02/19 01:04:58;;;;;;;19.38;17.48;;;12.00;99.90;;;;;;2076372;28;20080;-72
2023/02/19 01:05:59;;;;;;;18.52;16.73;;;12.00;99.90;;;;;;2073542;28;20473;-72
2023/02/19 01:06:59;;;;;;;19.80;17.90;;;12.00;99.90;;;;;;2076847;28;20558;-72
2023/02/19 01:08:00;;;;;;;18.98;17.05;;;12.00;99.90;;;;;;2075162;28;20037;-72
2023/02/19 01:09:01;;;;;;;18.42;16.58;;;12.00;99.90;;;;;;2075187;28;20071;-72
2023/02/19 01:10:01;;;;;;;18.42;16.67;;;12.00;99.90;;;;;;2072727;28;20037;-72
2023/02/19 01:11:04;;;;;;;18.95;17.15;;;12.00;99.90;;;;;;2082175;28;20021;-72
2023/02/19 01:12:05;;;;;;;19.23;17.48;;;12.00;99.90;;;;;;2080795;28;20037;-72
2023/02/19 01:13:05;;;;;;;19.10;17.38;;;12.00;99.90;;;;;;2075345;28;20091;-72
2023/02/19 01:14:06;;;;;;;19.20;17.40;;;12.00;99.90;;;;;;2074959;28;20489;-72
2023/02/19 01:15:07;;;;;;;18.73;17.02;;;12.00;99.90;;;;;;2070051;28;20030;-72
2023/02/19 01:16:12;;;;;;;18.35;16.63;;;12.00;99.90;;;;;;2074749;28;20121;-72
2023/02/19 01:17:12;;;;;;;19.52;17.65;;;12.00;99.90;;;;;;2075302;28;20045;-72
2023/02/19 01:18:13;;;;;;;20.15;18.23;;;12.00;99.90;;;;;;2076688;28;20581;-72
2023/02/19 01:19:13;;;;;;;21.60;19.50;;;12.00;99.90;;;;;;2075221;28;20025;-72
2023/02/19 01:20:14;;;;;;;20.90;18.88;;;12.00;99.90;;;;;;2069818;28;20101;-72
2023/02/19 01:21:20;;;;;;;20.98;18.95;;;12.00;99.90;;;;;;2071574;28;20026;-72
2023/02/19 01:22:21;;;;;;;18.85;17.15;;;12.00;99.90;;;;;;2072039;28;20473;-72
2023/02/19 01:23:22;;;;;;;21.08;19.02;;;12.00;99.90;;;;;;2074013;28;20778;-72
2023/02/19 01:24:22;;;;;;;21.23;19.00;;;12.00;99.90;;;;;;2079800;28;20024;-72
2023/02/19 01:25:23;;;;;;;21.30;19.27;;;12.00;99.90;;;;;;2079217;28;20052;-72
2023/02/19 01:26:26;;;;;;;20.92;18.88;;;12.00;99.90;;;;;;2073950;28;20025;-72
2023/02/19 01:27:27;;;;;;;19.48;17.58;;;12.00;99.90;;;;;;2076279;28;20113;-72
2023/02/19 01:28:28;;;;;;;21.15;18.88;;;12.00;99.90;;;;;;2082536;28;20071;-72
2023/02/19 01:29:29;;;;;;;21.38;19.23;;;12.00;99.90;;;;;;2072972;28;20076;-72
2023/02/19 01:30:29;;;;;;;20.25;18.35;;;12.00;99.90;;;;;;2075433;28;20049;-72
2023/02/19 01:31:30;;;;;;;20.35;18.33;;;12.00;99.90;;;;;;2076822;28;20029;-72
2023/02/19 01:32:30;;;;;;;20.98;18.90;;;12.00;99.90;;;;;;2074641;28;20025;-72
2023/02/19 01:33:32;;;;;;;19.45;17.75;;;12.00;99.90;;;;;;2074509;28;20440;-72
2023/02/19 01:34:32;;;;;;;19.58;17.55;;;12.00;99.90;;;;;;2076310;28;20068;-72
2023/02/19 01:35:33;;;;;;;19.63;17.83;;;12.00;99.90;;;;;;2075933;28;20172;-72
2023/02/19 01:36:35;;;;;;;19.33;17.33;;;12.10;99.90;;;;;;2083089;28;20547;-72
2023/02/19 01:37:36;;;;;;;20.52;18.52;;;12.00;99.90;;;;;;2081068;28;20026;-72
2023/02/19 01:38:36;;;;;;;21.33;18.92;;;12.00;99.90;;;;;;2075182;28;20492;-72
2023/02/19 01:39:40;;;;;;;21.45;19.25;;;12.00;99.90;;;;;;2075836;28;20056;-72
2023/02/19 01:40:40;;;;;;;20.90;18.92;;;12.00;99.90;;;;;;2075391;28;20697;-72
2023/02/19 01:41:41;;;;;;;21.25;19.25;;;12.00;99.90;;;;;;2074466;28;20092;-72
2023/02/19 01:42:43;;;;;;;21.70;19.48;;;12.00;99.90;;;;;;2075085;28;20033;-72
2023/02/19 01:44:13;;;;;;;20.58;18.70;;;12.00;99.90;;;;;;2075442;28;20033;-72
2023/02/19 01:45:37;;;;;;;22.05;19.75;;;12.00;99.90;;;;;;2062864;28;20510;-72
2023/02/19 01:46:40;;;;;;;23.58;21.17;;;12.00;99.90;;;;;;2065242;28;20031;-72
2023/02/19 01:47:40;;;;;;;23.40;21.02;;;12.00;99.90;;;;;;2077322;28;20431;-72
2023/02/19 01:48:41;;;;;;;22.92;20.65;;;12.00;99.90;;;;;;2077035;28;20024;-72
2023/02/19 01:49:47;;;;;;;24.33;21.77;;;12.00;99.90;;;;;;2077712;28;20104;-72
2023/02/19 01:50:58;;;;;;;24.90;22.30;;;12.00;99.90;;;;;;2081839;28;20043;-72
2023/02/19 01:52:10;;;;;;;26.38;21.73;;;12.00;99.90;;;;;;2077363;28;20545;-72
2023/02/19 01:53:13;;;;;;;24.65;22.25;;;12.00;99.90;;;;;;2078553;28;20036;-72
2023/02/19 01:54:18;;;;;;;27.83;24.83;;;12.00;99.90;;;;;;2082124;28;20531;-72
2023/02/19 01:55:19;;;;;;;28.80;25.83;;;12.00;99.90;;;;;;2077225;28;20029;-72
2023/02/19 01:56:22;;;;;;;28.38;24.77;;;12.00;99.90;;;;;;2073849;28;20026;-72
2023/02/19 01:57:25;;;;;;;28.20;25.40;;;12.00;99.90;;;;;;2076444;28;20036;-72
2023/02/19 01:58:30;;;;;;;27.30;23.67;;;12.00;99.90;;;;;;2076702;28;20140;-72
2023/02/19 01:59:31;;;;;;;28.63;25.55;;;12.00;99.90;;;;;;2075760;28;20026;-72
2023/02/19 02:00:33;;;;;;;27.33;24.45;;;12.00;99.90;;;;;;2074552;28;20678;-72
2023/02/19 02:01:37;;;;;;;29.15;25.95;;;12.00;99.90;;;;;;2075929;28;20503;-72
2023/02/19 02:02:40;;;;;;;30.17;26.98;;;12.00;99.90;;;;;;2074477;28;20018;-72
2023/02/19 02:03:43;;;;;;;30.20;27.02;;;12.00;99.90;;;;;;2077067;28;20052;-72
2023/02/19 02:04:44;;;;;;;30.80;27.60;;;12.00;99.90;;;;;;2074710;28;20022;-72
2023/02/19 02:05:58;;;;;;;30.33;27.33;;;11.90;99.90;;;;;;2069974;28;20053;-72
2023/02/19 02:07:01;;;;;;;30.88;27.58;;;12.00;99.90;;;;;;2079720;28;20909;-72
2023/02/19 02:10:45;;;;;;;31.65;28.42;;;11.90;99.90;;;;;;2074608;28;20025;-72
2023/02/19 02:11:51;;;;;;;32.28;28.88;;;11.90;99.90;;;;;;2076968;28;20121;-72
2023/02/19 02:12:56;;;;;;;32.53;29.13;;;11.90;99.90;;;;;;2076688;28;20068;-72
2023/02/19 02:13:57;;;;;;;32.70;29.20;;;11.90;99.90;;;;;;2077245;28;20981;-72
2023/02/19 02:14:58;;;;;;;33.72;30.10;;;11.90;99.90;;;;;;2076213;28;20040;-72
2023/02/19 02:16:19;;;;;;;31.55;28.13;;;11.90;99.90;;;;;;2078627;28;20037;-72
2023/02/19 02:17:39;;;;;;;31.88;28.67;;;11.90;99.90;;;;;;2078293;28;20528;-72
2023/02/19 02:18:57;;;;;;;31.98;28.60;;;11.90;99.90;;;;;;2075449;28;20061;-72
2023/02/19 02:20:18;;;;;;;31.27;27.98;;;11.90;99.90;;;;;;2074529;28;21583;-72
2023/02/19 02:22:05;;;;;;;30.25;27.25;;;11.90;99.90;;;;;;2076885;28;20033;-73
2023/02/19 02:23:30;;;;;;;29.60;26.50;;;11.80;99.90;;;;;;2072251;28;20124;-72
2023/02/19 02:24:57;;;;;;;30.83;27.70;;;11.80;99.90;;;;;;2075658;28;20057;-72
2023/02/19 02:26:34;;;;;;;31.20;28.08;;;11.80;99.90;;;;;;2075924;28;20037;-72
2023/02/19 02:27:46;;;;;;;29.92;26.77;;;11.80;99.90;;;;;;2076429;28;20061;-72
2023/02/19 02:28:47;;;;;;;31.42;28.13;;;11.80;99.90;;;;;;2075066;28;20042;-72
2023/02/19 02:30:06;;;;;;;29.35;26.30;;;11.80;99.90;;;;;;2081548;28;20025;-72
2023/02/19 02:31:17;;;;;;;28.27;25.35;;;11.80;99.90;;;;;;2081879;28;20029;-72
2023/02/19 02:32:24;;;;;;;30.60;25.85;;;11.80;99.90;;;;;;2075566;28;20029;-72
2023/02/19 02:33:36;;;;;;;25.63;22.73;;;11.80;99.90;;;;;;2074607;28;20029;-73
2023/02/19 02:35:03;;;;;;;25.13;22.58;;;11.80;99.90;;;;;;2076060;28;20022;-72
2023/02/19 02:36:20;;;;;;;26.08;23.10;;;11.80;99.90;;;;;;2074470;28;20065;-72
2023/02/19 02:37:24;;;;;;;25.65;22.95;;;11.80;99.90;;;;;;2074938;28;20512;-72
2023/02/19 02:38:29;;;;;;;26.65;23.80;;;11.70;99.90;;;;;;2075918;28;20077;-72
2023/02/19 02:39:31;;;;;;;26.20;22.88;;;11.80;99.90;;;;;;2076222;28;20060;-72
2023/02/19 02:40:32;;;;;;;24.73;21.98;;;11.80;99.90;;;;;;2075543;28;20082;-72
2023/02/19 02:41:33;;;;;;;26.05;22.15;;;11.80;99.90;;;;;;2076281;28;20055;-72
2023/02/19 02:42:37;;;;;;;25.23;22.58;;;11.70;99.90;;;;;;2074210;28;20079;-72
2023/02/19 02:43:38;;;;;;;29.48;23.65;;;11.80;99.90;;;;;;2075315;28;20488;-72
2023/02/19 02:44:39;;;;;;;25.88;23.05;;;11.80;99.90;;;;;;2077042;28;20582;-72
2023/02/19 02:45:41;;;;;;;26.83;23.40;;;11.80;99.90;;;;;;2078673;28;20026;-72
2023/02/19 02:46:44;;;;;;;25.00;22.42;;;11.70;99.90;;;;;;2075785;28;20668;-73
2023/02/19 02:47:55;;;;;;;26.48;21.20;;;11.80;99.90;;;;;;2083226;28;20059;-72
2023/02/19 02:49:09;;;;;;;26.60;21.35;;;11.80;99.90;;;;;;2083213;28;20441;-72
2023/02/19 02:50:29;;;;;;;27.65;21.73;;;11.80;99.90;;;;;;2072916;28;20112;-72
2023/02/19 02:51:40;;;;;;;22.75;19.27;;;11.80;99.90;;;;;;2076699;28;20147;-72
2023/02/19 02:55:40;;;;;;;23.58;19.95;;;11.70;99.90;;;;;;2075513;28;20034;-72
2023/02/19 02:56:42;;;;;;;27.08;19.65;;;11.70;99.90;;;;;;2084832;28;20048;-72
2023/02/19 02:57:43;;;;;;;25.42;20.67;;;11.70;99.90;;;;;;2084846;28;20381;-72
2023/02/19 02:58:47;;;;;;;26.05;21.63;;;11.70;99.90;;;;;;2073893;28;20034;-72
2023/02/19 02:59:48;;;;;;;25.98;20.73;;;11.80;99.90;;;;;;2075982;28;20032;-73
2023/02/19 03:02:21;;;;;;;25.98;21.13;;;11.80;99.90;;;;;;2075589;28;20109;-72
2023/02/19 03:03:24;;;;;;;26.13;21.27;;;11.70;99.90;;;;;;2075429;28;20018;-72
2023/02/19 03:06:06;;;;;;;28.90;22.27;;;11.80;99.90;;;;;;2074199;28;20029;-73
2023/02/19 03:07:09;;;;;;;27.90;22.73;;;11.70;99.90;;;;;;2077177;28;20036;-72
2023/02/19 03:08:25;;;;;;;28.90;22.27;;;11.70;99.90;;;;;;2076017;28;20021;-73
2023/02/19 03:09:39;;;;;;;27.48;21.80;;;11.70;99.90;;;;;;2074109;28;20026;-72
2023/02/19 03:10:42;;;;;;;29.30;21.70;;;11.80;99.90;;;;;;2074432;28;20036;-72
2023/02/19 03:19:20;;;;;;;29.15;20.70;;;11.60;99.90;;;;;;2075488;28;20026;-72
2023/02/19 03:20:23;;;;;;;28.42;20.10;;;11.70;99.90;;;;;;2074732;28;20022;-72
2023/02/19 03:21:26;;;;;;;28.90;20.27;;;11.60;99.90;;;;;;2073991;28;20381;-72
2023/02/19 03:22:37;;;;;;;23.75;18.75;;;11.60;99.90;;;;;;2075490;28;20085;-72
2023/02/19 03:26:24;;;;;;;26.63;19.05;;;11.70;99.90;;;;;;2075468;28;20033;-72
2023/02/19 03:27:29;;;;;;;25.13;18.88;;;11.60;99.90;;;;;;2075751;28;20034;-72
2023/02/19 03:29:53;;;;;;;28.10;18.23;;;11.60;99.90;;;;;;2074111;28;20108;-72
2023/02/19 03:30:54;;;;;;;26.90;20.08;;;11.60;99.90;;;;;;2073241;28;20028;-72
2023/02/19 03:31:59;;;;;;;27.38;19.73;;;11.60;99.90;;;;;;2075997;28;20038;-72
2023/02/19 03:33:07;;;;;;;27.50;18.77;;;11.60;99.90;;;;;;2073799;28;20041;-72
2023/02/19 03:34:15;;;;;;;27.92;19.00;;;11.60;99.90;;;;;;2074215;28;20518;-72
2023/02/19 03:35:20;;;;;;;28.50;21.40;;;11.60;99.90;;;;;;2076395;28;20021;-72
2023/02/19 03:36:24;;;;;;;25.20;19.60;;;11.60;99.90;;;;;;2076422;28;20084;-72
2023/02/19 03:37:37;;;;;;;26.20;19.45;;;11.60;99.90;;;;;;2080560;28;20726;-72
2023/02/19 03:38:43;;;;;;;28.23;19.02;;;11.70;99.90;;;;;;2079413;28;20017;-72
2023/02/19 03:39:44;;;;;;;23.65;17.90;;;11.70;99.90;;;;;;2072737;28;20083;-72
2023/02/19 03:41:14;;;;;;;26.40;18.58;;;11.70;99.90;;;;;;2073771;28;20030;-72
2023/02/19 03:42:38;;;;;;;23.52;16.95;;;11.70;99.90;;;;;;2082809;28;20036;-72
2023/02/19 03:44:01;;;;;;;24.15;16.55;;;11.60;99.90;;;;;;2080732;28;20022;-72
2023/02/19 03:45:35;;;;;;;24.13;17.10;;;11.60;99.90;;;;;;2074765;28;20092;-72
2023/02/19 03:46:55;;;;;;;25.92;16.73;;;11.60;99.90;;;;;;2080857;28;20029;-72
2023/02/19 03:48:18;;;;;;;25.00;15.52;;;11.60;99.90;;;;;;2077768;28;20029;-72
2023/02/19 03:49:44;;;;;;;25.05;15.10;;;11.50;99.90;;;;;;2075414;28;20458;-72
2023/02/19 03:50:59;;;;;;;20.15;14.57;;;11.50;99.90;;;;;;2073353;28;20025;-73
2023/02/19 03:52:33;;;;;;;22.35;15.15;;;11.50;99.90;;;;;;2073163;28;20033;-72
2023/02/19 03:53:45;;;;;;;19.60;14.77;;;11.50;99.90;;;;;;2074103;28;20037;-72
2023/02/19 03:55:06;;;;;;;19.27;13.95;;;11.50;99.90;;;;;;2081617;28;20037;-72
2023/02/19 03:56:15;;;;;;;22.58;15.13;;;11.50;99.90;;;;;;2080923;28;20029;-73
2023/02/19 03:57:32;;;;;;;25.48;15.02;;;11.50;99.90;;;;;;2079081;28;20029;-72
2023/02/19 03:59:00;;;;;;;22.67;14.45;;;11.50;99.90;;;;;;2074015;28;20424;-72
2023/02/19 04:00:20;;;;;;;20.02;14.52;;;11.50;99.90;;;;;;2080785;28;20041;-72
2023/02/19 04:01:38;;;;;;;23.17;14.70;;;11.50;99.90;;;;;;2077919;28;20036;-73
2023/02/19 04:02:50;;;;;;;19.60;15.00;;;11.50;99.90;;;;;;2078331;28;20033;-72
2023/02/19 04:03:55;;;;;;;18.55;14.35;;;11.50;99.90;;;;;;2079526;28;20103;-72
2023/02/19 04:05:10;;;;;;;25.10;14.40;;;11.50;99.90;;;;;;2074404;28;20053;-72
2023/02/19 04:06:21;;;;;;;18.67;14.20;;;11.50;99.90;;;;;;2073551;28;20029;-72
2023/02/19 04:07:22;;;;;;;;;;;11.50;99.90;;;;;;2076245;28;20420;-72
2023/02/19 04:08:24;;;;;;;20.23;14.13;;;11.40;99.90;;;;;;2074127;28;19917;-72
2023/02/19 04:09:32;;;;;;;24.25;15.10;;;11.50;99.90;;;;;;2077408;28;20037;-72
2023/02/19 04:10:33;;;;;;;20.88;15.73;;;11.50;99.90;;;;;;2074599;28;20106;-72
2023/02/19 04:11:35;;;;;;;23.40;15.05;;;11.50;99.90;;;;;;2076330;28;20021;-73
2023/02/19 04:12:42;;;;;;;21.00;14.85;;;11.50;99.90;;;;;;2075622;28;20084;-72
2023/02/19 04:14:03;;;;;;;21.50;15.80;;;11.50;99.90;;;;;;2076834;28;20036;-72
2023/02/19 04:15:10;;;;;;;21.08;15.35;;;11.50;99.90;;;;;;2075516;28;20032;-73
2023/02/19 04:16:18;;;;;;;20.77;14.20;;;11.50;99.90;;;;;;2071985;28;20886;-72
2023/02/19 04:17:42;;;;;;;17.85;13.48;;;11.50;99.90;;;;;;2074871;28;20119;-72
2023/02/19 04:18:47;;;;;;;20.67;14.15;;;11.50;99.90;;;;;;2078841;28;20040;-72
2023/02/19 04:19:50;;;;;;;19.75;13.98;;;11.50;99.90;;;;;;2073673;28;20052;-72
2023/02/19 04:20:51;;;;;;;22.50;15.15;;;11.50;99.90;;;;;;2072832;28;20058;-72
2023/02/19 04:21:54;;;;;;;20.67;13.98;;;11.50;99.90;;;;;;2074258;28;20084;-72
2023/02/19 04:22:55;;;;;;;19.25;13.93;;;11.50;99.90;;;;;;2074539;28;20032;-72
2023/02/19 04:24:01;;;;;;;18.98;13.13;;;11.50;99.90;;;;;;2075946;28;20441;-72
2023/02/19 04:25:02;;;;;;;24.63;15.43;;;11.50;99.90;;;;;;2074866;28;20127;-72
2023/02/19 04:26:04;;;;;;;17.52;13.63;;;11.50;99.90;;;;;;2075734;28;20026;-72
2023/02/19 04:27:05;;;;;;;18.23;14.13;;;11.50;99.90;;;;;;2074800;28;20032;-72
2023/02/19 04:28:07;;;;;;;20.52;14.52;;;11.50;99.90;;;;;;2074351;28;20452;-72
2023/02/19 04:29:08;;;;;;;19.17;14.00;;;11.50;99.90;;;;;;2075197;28;20029;-72
2023/02/19 04:30:11;;;;;;;20.45;15.07;;;11.50;99.90;;;;;;2074675;28;20029;-72
2023/02/19 04:31:11;;;;;;;20.23;13.95;;;11.50;99.90;;;;;;2073946;28;20064;-72
2023/02/19 04:32:13;;;;;;;18.92;13.80;;;11.50;99.90;;;;;;2073846;28;20033;-72
2023/02/19 04:33:13;;;;;;;23.00;14.38;;;11.50;99.90;;;;;;2075521;28;20033;-72
2023/02/19 04:34:14;;;;;;;20.23;14.40;;;11.50;99.90;;;;;;2072719;28;20033;-72
2023/02/19 04:35:15;;;;;;;22.25;13.95;;;11.50;99.90;;;;;;2074642;28;20752;-72
2023/02/19 04:36:15;;;;;;;19.02;14.13;;;11.50;99.90;;;;;;2074848;28;20030;-72
2023/02/19 04:37:16;;;;;;;19.25;14.10;;;11.50;99.90;;;;;;2075233;28;20137;-72
2023/02/19 04:38:16;;;;;;;17.98;12.93;;;11.50;99.90;;;;;;2074973;28;20025;-72
2023/02/19 04:39:17;;;;;;;20.13;13.55;;;11.50;99.90;;;;;;2075575;28;20748;-72
2023/02/19 04:40:17;;;;;;;21.55;13.85;;;11.50;99.90;;;;;;2072613;28;20080;-72
2023/02/19 04:41:18;;;;;;;22.92;14.00;;;11.50;99.90;;;;;;2074917;28;20052;-72
2023/02/19 04:42:18;;;;;;;20.92;13.45;;;11.50;99.90;;;;;;2073755;28;20060;-72
2023/02/19 04:43:19;;;;;;;16.63;12.90;;;11.50;99.90;;;;;;2076024;28;20059;-73
2023/02/19 04:44:20;;;;;;;20.65;13.50;;;11.50;99.90;;;;;;2074291;28;20104;-72
2023/02/19 04:45:20;;;;;;;20.92;12.77;;;11.50;99.90;;;;;;2075009;28;20042;-72
2023/02/19 04:46:21;;;;;;;25.15;13.43;;;11.50;99.90;;;;;;2075483;28;20375;-72
2023/02/19 04:47:21;;;;;;;19.02;13.20;;;11.50;99.90;;;;;;2072810;28;20235;-72
2023/02/19 04:48:22;;;;;;;19.55;13.40;;;11.50;99.90;;;;;;2072890;28;20038;-72
2023/02/19 04:49:22;;;;;;;20.52;12.63;;;11.50;99.90;;;;;;2076133;28;20080;-72
2023/02/19 04:50:23;;;;;;;21.05;13.52;;;11.50;99.90;;;;;;2077662;28;20037;-72
2023/02/19 04:51:24;;;;;;;19.02;13.23;;;11.50;99.90;;;;;;2076242;28;20029;-73
2023/02/19 04:52:24;;;;;;;23.73;13.57;;;11.50;99.90;;;;;;2074588;28;20045;-72
2023/02/19 04:53:25;;;;;;;23.33;13.70;;;11.50;99.90;;;;;;2074140;28;20524;-72
2023/02/19 04:54:26;;;;;;;18.40;13.20;;;11.50;99.90;;;;;;2073200;28;20029;-72
2023/02/19 04:55:26;;;;;;;17.70;13.15;;;11.50;99.90;;;;;;2074978;28;20034;-72
2023/02/19 04:56:27;;;;;;;23.45;14.77;;;11.50;99.90;;;;;;2074108;28;20120;-72
2023/02/19 04:57:27;;;;;;;22.92;13.75;;;11.50;99.90;;;;;;2077104;28;20017;-72
2023/02/19 04:58:28;;;;;;;24.70;13.73;;;11.50;99.90;;;;;;2073847;28;20036;-72
2023/02/19 04:59:29;;;;;;;21.10;13.70;;;11.50;99.90;;;;;;2073993;28;20109;-72
2023/02/19 05:00:32;;;;;;;21.17;13.38;;;11.50;99.90;;;;;;2074420;28;20033;-72
2023/02/19 05:01:33;;;;;;;21.98;12.70;;;11.50;99.90;;;;;;2074096;28;20117;-72
2023/02/19 05:02:34;;;;;;;22.08;13.25;;;11.50;99.90;;;;;;2075849;28;20033;-72
2023/02/19 05:03:34;;;;;;;21.45;14.13;;;11.50;99.90;;;;;;2073480;28;20527;-72
2023/02/19 05:04:35;;;;;;;21.08;13.40;;;11.50;99.90;;;;;;2074517;28;20949;-72
2023/02/19 05:05:35;;;;;;;23.13;13.82;;;11.40;99.90;;;;;;2076376;28;20025;-72
2023/02/19 05:06:36;;;;;;;16.38;14.18;;;11.40;99.90;;;;;;2077130;28;20053;-72
2023/02/19 05:07:36;;;;;;;21.65;13.73;;;11.50;99.90;;;;;;2077434;28;20116;-72
2023/02/19 05:08:37;;;;;;;17.10;13.95;;;11.40;99.90;;;;;;2076266;28;20394;-72
2023/02/19 05:09:38;;;;;;;22.38;15.40;;;11.50;99.90;;;;;;2075203;28;20064;-72
2023/02/19 05:10:39;;;;;;;22.73;14.23;;;11.50;99.90;;;;;;2074790;28;20033;-72
2023/02/19 05:11:39;;;;;;;18.52;12.40;;;11.40;99.90;;;;;;2073866;28;20056;-72
2023/02/19 05:12:40;;;;;;;18.83;13.20;;;11.40;99.90;;;;;;2076206;28;20472;-72
2023/02/19 05:13:40;;;;;;;20.88;13.30;;;11.40;99.90;;;;;;2077535;28;20053;-72
2023/02/19 05:14:41;;;;;;;20.58;14.00;;;11.50;99.90;;;;;;2083192;28;20021;-72
2023/02/19 05:15:41;;;;;;;21.45;12.75;;;11.50;99.90;;;;;;2085505;28;20063;-72
2023/02/19 05:16:42;;;;;;;21.50;12.50;;;11.50;99.90;;;;;;2076567;28;20044;-72
2023/02/19 05:17:42;;;;;;;20.83;13.45;;;11.40;99.90;;;;;;2075757;28;20513;-72
2023/02/19 05:18:44;;;;;;;19.83;13.32;;;11.50;99.90;;;;;;2076494;28;20037;-72
2023/02/19 05:19:45;;;;;;;16.50;12.48;;;11.40;99.90;;;;;;2074056;28;20025;-72
2023/02/19 05:20:45;;;;;;;20.60;12.95;;;11.40;99.90;;;;;;2078368;28;20037;-72
2023/02/19 05:21:46;;;;;;;23.83;12.77;;;11.40;99.90;;;;;;2080672;28;20048;-72
2023/02/19 05:22:46;;;;;;;18.70;13.02;;;11.40;99.90;;;;;;2075268;28;20034;-72
2023/02/19 05:23:47;;;;;;;19.63;13.07;;;11.40;99.90;;;;;;2078196;28;20386;-72
2023/02/19 05:24:47;;;;;;;17.98;12.63;;;11.40;99.90;;;;;;2078326;28;20021;-72
2023/02/19 05:25:48;;;;;;;16.50;12.23;;;11.40;99.90;;;;;;2074453;28;20033;-72
2023/02/19 05:26:49;;;;;;;21.85;12.90;;;11.40;99.90;;;;;;2077917;28;20029;-72
2023/02/19 05:28:15;;;;;;;19.33;13.30;;;11.40;99.90;;;;;;2078652;28;20056;-72
2023/02/19 05:29:10;;;;;;;;;;;11.40;99.90;;;;;;2078243;28;20080;-72
2023/02/19 05:30:11;;;;;;;19.83;12.70;;;11.30;99.90;;;;;;2076208;28;19909;-73
2023/02/19 05:31:12;;;;;;;16.38;12.52;;;11.30;99.90;;;;;;2076541;28;20123;-72
2023/02/19 05:32:12;;;;;;;20.80;12.55;;;11.40;99.90;;;;;;2078267;28;20520;-72
2023/02/19 05:33:14;;;;;;;20.00;12.50;;;11.40;99.90;;;;;;2074624;28;20688;-72
2023/02/19 05:34:14;;;;;;;16.23;12.55;;;11.40;99.90;;;;;;2073391;28;20045;-72
2023/02/19 05:35:15;;;;;;;16.15;12.60;;;11.40;99.90;;;;;;2074387;28;20084;-72
2023/02/19 05:36:17;;;;;;;18.55;12.75;;;11.40;99.90;;;;;;2077161;28;20376;-72
2023/02/19 05:37:18;;;;;;;19.50;12.30;;;11.40;99.90;;;;;;2076213;28;20026;-72
2023/02/19 05:38:18;;;;;;;15.93;11.98;;;11.30;99.90;;;;;;2075916;28;20029;-72
2023/02/19 05:39:19;;;;;;;19.02;12.68;;;11.40;99.90;;;;;;2074325;28;20113;-73
2023/02/19 05:40:19;;;;;;;19.38;12.38;;;11.40;99.90;;;;;;2075140;28;20457;-72
2023/02/19 05:41:26;;;;;;;18.48;13.23;;;11.40;99.90;;;;;;2076517;28;20032;-72
2023/02/19 05:42:27;;;;;;;20.08;12.93;;;11.40;99.90;;;;;;2075318;28;20034;-72
2023/02/19 05:43:27;;;;;;;18.52;13.10;;;11.40;99.90;;;;;;2077093;28;20018;-73
2023/02/19 05:44:28;;;;;;;19.33;13.02;;;11.40;99.90;;;;;;2074769;28;20404;-72
2023/02/19 05:45:29;;;;;;;23.92;14.02;;;11.40;99.90;;;;;;2074731;28;20029;-72
2023/02/19 05:46:30;;;;;;;24.13;13.77;;;11.40;99.90;;;;;;2075448;28;20029;-72
2023/02/19 05:47:30;;;;;;;19.58;13.57;;;11.40;99.90;;;;;;2077197;28;20029;-72
2023/02/19 05:48:31;;;;;;;24.45;13.30;;;11.40;99.90;;;;;;2076327;28;20458;-72